Time;durP1;ratioP1;P1;durP2;ratioP2;P2;SDS_P1;SDS_P2;PMS_P1;PMS_P2;Temp;Humidity;BMP_temperature;BMP_pressure;BME280_temperature;BME280_humidity;BME280_pressure;Samples;Min_cycle;Max_cycle;Signal;HPM_P1;HPM_P2
2024/02/27 00:01:30;;;;;;;23.55;10.18;;;;;;;2.92;100.00;101558.38;5000392;28;20030;-69
2024/02/27 00:03:59;;;;;;;22.00;10.07;;;;;;;2.94;100.00;101561.63;4984781;28;20400;-70
2024/02/27 00:06:24;;;;;;;25.17;11.65;;;;;;;2.95;100.00;101562.44;5000426;28;20769;-70
2024/02/27 00:08:50;;;;;;;23.85;11.38;;;;;;;2.94;100.00;101566.91;4999104;28;20034;-70
2024/02/27 00:11:16;;;;;;;27.33;11.95;;;;;;;2.96;100.00;101575.47;4998432;28;20128;-70
2024/02/27 00:13:41;;;;;;;24.80;11.23;;;;;;;2.96;100.00;101572.00;4995661;28;20799;-70
2024/02/27 00:16:08;;;;;;;25.63;10.95;;;;;;;2.97;100.00;101586.84;5000585;28;20034;-69
2024/02/27 00:18:33;;;;;;;27.10;10.88;;;;;;;2.98;100.00;101585.84;4982997;28;20077;-70
2024/02/27 00:20:59;;;;;;;26.80;11.57;;;;;;;2.98;100.00;101589.31;4983747;28;20033;-69
2024/02/27 00:23:25;;;;;;;26.30;11.20;;;;;;;3.01;100.00;101588.91;4999040;28;20037;-69
2024/02/27 00:25:51;;;;;;;25.38;12.10;;;;;;;3.03;100.00;101587.91;4996049;28;20044;-70
2024/02/27 00:28:16;;;;;;;25.70;11.90;;;;;;;3.05;100.00;101591.16;4996621;28;20037;-70
2024/02/27 00:30:42;;;;;;;29.60;12.77;;;;;;;3.05;100.00;101583.22;5003744;28;20065;-70
2024/02/27 00:33:08;;;;;;;30.75;14.00;;;;;;;3.04;100.00;101586.88;4983674;28;20143;-69
2024/02/27 00:35:35;;;;;;;26.48;12.43;;;;;;;3.06;100.00;101584.88;4997439;28;20065;-70
2024/02/27 00:38:01;;;;;;;27.15;12.73;;;;;;;3.03;100.00;101595.84;4998769;28;20037;-71
2024/02/27 00:40:27;;;;;;;25.85;11.80;;;;;;;3.04;100.00;101586.88;4997203;28;20042;-70
2024/02/27 00:42:53;;;;;;;26.63;12.25;;;;;;;3.01;100.00;101588.91;5011663;23;20638;-81
2024/02/27 00:45:18;;;;;;;26.05;11.82;;;;;;;3.04;100.00;101598.28;4971073;28;20046;-83
2024/02/27 00:47:44;;;;;;;24.67;11.30;;;;;;;3.00;100.00;101599.72;5007436;28;20041;-83
2024/02/27 00:50:10;;;;;;;25.98;11.82;;;;;;;3.00;100.00;101589.94;4994389;28;20098;-83
2024/02/27 00:52:36;;;;;;;;;;;;;;;3.00;100.00;101597.88;4992158;28;20046;-81
2024/02/27 00:55:03;;;;;;;22.38;10.77;;;;;;;3.00;100.00;101597.88;5001907;28;19932;-84
2024/02/27 00:57:31;;;;;;;20.48;9.60;;;;;;;2.98;100.00;101602.56;4981094;28;20034;-85
2024/02/27 00:59:57;;;;;;;20.23;9.50;;;;;;;2.99;100.00;101601.53;5012396;28;20036;-81
2024/02/27 01:02:23;;;;;;;23.50;10.95;;;;;;;2.98;100.00;101599.91;4994721;28;20340;-83
2024/02/27 01:04:49;;;;;;;24.80;11.07;;;;;;;2.97;100.00;101595.59;4991988;28;20506;-83
2024/02/27 01:07:15;;;;;;;23.80;10.38;;;;;;;3.00;100.00;101587.28;4975336;28;20068;-82
2024/02/27 01:09:40;;;;;;;26.90;11.63;;;;;;;2.97;100.00;101592.97;5002951;28;20037;-82
2024/02/27 01:12:06;;;;;;;25.08;11.73;;;;;;;3.01;100.00;101604.78;4992771;28;20044;-83
2024/02/27 01:14:33;;;;;;;26.05;11.50;;;;;;;2.98;100.00;101602.56;5013111;28;20034;-82
2024/02/27 01:17:01;;;;;;;25.40;11.60;;;;;;;2.97;100.00;101611.47;5004938;28;20516;-83
2024/02/27 01:19:26;;;;;;;26.42;11.02;;;;;;;2.96;100.00;101609.84;4993758;28;20088;-83
2024/02/27 01:21:57;;;;;;;23.92;12.07;;;;;;;2.96;100.00;101616.97;4998720;28;20044;-83
2024/02/27 01:24:25;;;;;;;27.23;10.98;;;;;;;2.98;100.00;101612.31;5000166;28;20493;-84
2024/02/27 01:27:06;;;;;;;28.05;12.52;;;;;;;2.95;100.00;101615.34;4992331;28;20038;-87
2024/02/27 01:29:35;;;;;;;25.23;11.13;;;;;;;2.95;100.00;101615.34;5004646;28;20038;-85
2024/02/27 01:32:08;;;;;;;24.38;11.05;;;;;;;2.93;100.00;101622.69;4974415;28;20053;-82
2024/02/27 01:34:34;;;;;;;25.13;10.63;;;;;;;2.92;100.00;101624.50;4995250;28;20045;-83
2024/02/27 01:37:07;;;;;;;23.13;10.18;;;;;;;2.93;100.00;101623.50;4988905;28;20052;-82
2024/02/27 01:39:32;;;;;;;24.45;10.23;;;;;;;2.93;100.00;101618.22;4989680;28;20034;-83
2024/02/27 01:41:59;;;;;;;25.02;11.00;;;;;;;2.94;100.00;101621.66;5015589;28;20038;-83
2024/02/27 01:44:26;;;;;;;22.23;10.30;;;;;;;2.94;100.00;101619.84;5000667;28;20181;-83
2024/02/27 01:46:53;;;;;;;26.60;11.70;;;;;;;2.98;100.00;101636.13;4998388;28;20034;-83
2024/02/27 01:49:19;;;;;;;27.40;11.65;;;;;;;2.96;100.00;101624.91;5006865;28;20026;-82
2024/02/27 01:51:50;;;;;;;23.52;11.32;;;;;;;2.99;100.00;101635.13;4995925;28;20072;-83
2024/02/27 01:54:19;;;;;;;22.75;10.18;;;;;;;3.01;100.00;101633.91;4974406;28;20431;-85
2024/02/27 01:56:48;;;;;;;28.27;11.52;;;;;;;2.98;100.00;101630.81;5027069;28;20033;-84
2024/02/27 01:59:17;;;;;;;22.55;10.00;;;;;;;3.00;100.00;101629.63;5004727;28;20034;-84
2024/02/27 02:01:43;;;;;;;23.88;10.93;;;;;;;2.98;100.00;101625.53;4983983;28;20057;-83
2024/02/27 02:04:11;;;;;;;24.20;11.05;;;;;;;3.02;100.00;101634.72;5004913;28;20049;-82
2024/02/27 02:06:41;;;;;;;22.73;10.70;;;;;;;3.00;100.00;101634.91;4989421;28;20045;-83
2024/02/27 02:09:07;;;;;;;24.05;10.45;;;;;;;3.03;100.00;101628.41;4987989;28;20026;-82
2024/02/27 02:11:33;;;;;;;20.73;9.75;;;;;;;3.03;100.00;101627.59;5008300;28;20095;-83
2024/02/27 02:13:59;;;;;;;24.00;10.85;;;;;;;3.01;100.00;101625.97;5025100;28;20065;-83
2024/02/27 02:16:25;;;;;;;22.30;11.10;;;;;;;3.06;100.00;101635.16;4974413;28;20044;-82
2024/02/27 02:18:51;;;;;;;23.95;10.80;;;;;;;3.05;100.00;101636.13;4992755;28;20034;-82
2024/02/27 02:21:17;;;;;;;23.40;10.43;;;;;;;3.07;100.00;101634.13;4993116;28;20037;-82
2024/02/27 02:23:44;;;;;;;23.50;10.93;;;;;;;3.09;100.00;101635.56;4977187;28;20053;-83
2024/02/27 02:26:13;;;;;;;24.80;11.40;;;;;;;3.09;100.00;101637.38;4992601;28;20030;-84
2024/02/27 02:28:39;;;;;;;22.35;10.68;;;;;;;3.05;100.00;101636.97;5012015;28;20041;-83
2024/02/27 02:31:04;;;;;;;23.00;10.68;;;;;;;3.02;100.00;101634.72;5029263;28;20030;-84
2024/02/27 02:33:30;;;;;;;22.98;10.27;;;;;;;3.04;100.00;101643.25;4975983;28;20026;-83
2024/02/27 02:35:56;;;;;;;21.67;10.43;;;;;;;3.08;100.00;101644.50;4988478;28;20276;-82
2024/02/27 02:38:21;;;;;;;27.15;12.15;;;;;;;3.07;100.00;101642.88;5010188;28;20124;-82
2024/02/27 02:40:50;;;;;;;23.58;10.55;;;;;;;3.09;100.00;101653.28;4993032;28;20053;-83
2024/02/27 02:43:16;;;;;;;25.88;11.25;;;;;;;3.05;100.00;101641.44;5005794;28;20509;-82
2024/02/27 02:45:41;;;;;;;26.17;12.05;;;;;;;3.05;100.00;101646.72;4980812;28;20038;-82
2024/02/27 02:48:07;;;;;;;23.13;10.93;;;;;;;3.04;100.00;101647.75;4992739;28;20036;-83
2024/02/27 02:50:33;;;;;;;23.10;10.85;;;;;;;3.07;100.00;101644.72;4992641;28;20202;-82
2024/02/27 02:53:01;;;;;;;22.73;10.35;;;;;;;3.07;100.00;101655.31;5010718;28;20124;-82
2024/02/27 02:55:30;;;;;;;21.50;10.25;;;;;;;3.06;100.00;101643.91;5011661;28;20068;-83
2024/02/27 02:57:59;;;;;;;23.35;11.18;;;;;;;3.09;100.00;101655.91;4985367;28;20067;-83
2024/02/27 03:00:24;;;;;;;24.05;11.57;;;;;;;3.13;100.00;101662.47;5028555;28;20113;-82
2024/02/27 03:02:59;;;;;;;24.52;11.80;;;;;;;3.10;100.00;101654.91;4999712;28;20046;-81
2024/02/27 03:05:27;;;;;;;24.88;11.38;;;;;;;3.12;100.00;101659.00;4977356;28;20029;-82
2024/02/27 03:07:56;;;;;;;22.63;11.00;;;;;;;3.13;100.00;101671.22;5025978;28;20041;-81
2024/02/27 03:10:25;;;;;;;24.70;11.48;;;;;;;3.10;100.00;101660.19;4993381;28;20587;-82
2024/02/27 03:12:51;;;;;;;25.60;11.85;;;;;;;3.11;100.00;101669.75;4977390;28;20053;-82
2024/02/27 03:15:16;;;;;;;22.75;11.35;;;;;;;3.16;100.00;101670.00;4993939;28;20402;-83
2024/02/27 03:17:42;;;;;;;27.80;12.55;;;;;;;3.09;100.00;101666.50;4990954;28;20088;-84
2024/02/27 03:20:10;;;;;;;27.48;12.02;;;;;;;3.14;100.00;101672.03;5009014;28;20060;-82
2024/02/27 03:22:36;;;;;;;26.75;11.95;;;;;;;3.15;100.00;101674.47;4995577;28;20033;-84
2024/02/27 03:25:07;;;;;;;25.80;11.38;;;;;;;3.16;100.00;101676.09;4988533;28;20048;-83
2024/02/27 03:27:38;;;;;;;24.50;11.18;;;;;;;3.20;100.00;101679.19;5004279;28;20445;-85
2024/02/27 03:30:05;;;;;;;27.92;11.82;;;;;;;3.19;100.00;101677.56;5017661;28;20029;-84
2024/02/27 03:32:30;;;;;;;28.20;11.98;;;;;;;3.20;100.00;101681.84;4988973;28;20038;-84
2024/02/27 03:34:56;;;;;;;27.27;12.55;;;;;;;3.20;100.00;101681.84;4996615;28;20045;-82
2024/02/27 03:37:22;;;;;;;27.65;12.68;;;;;;;3.22;100.00;101677.16;5010768;28;20052;-82
2024/02/27 03:39:48;;;;;;;26.27;12.20;;;;;;;3.22;100.00;101675.31;4979902;28;20451;-83
2024/02/27 03:42:14;;;;;;;29.15;12.93;;;;;;;3.23;100.00;101681.41;5019922;28;20053;-84
2024/02/27 03:44:45;;;;;;;27.38;12.40;;;;;;;3.24;100.00;101685.69;5003153;28;20033;-84
2024/02/27 03:47:15;;;;;;;25.83;12.90;;;;;;;3.29;100.00;101688.56;4995669;28;20033;-82
2024/02/27 03:49:40;;;;;;;28.17;12.80;;;;;;;3.27;100.00;101696.72;5013011;28;20029;-83
2024/02/27 03:52:10;;;;;;;28.35;13.40;;;;;;;3.28;100.00;101700.19;5007933;28;20042;-82
2024/02/27 03:54:36;;;;;;;26.95;13.20;;;;;;;3.30;100.00;101698.16;4978758;28;20033;-84
2024/02/27 03:57:02;;;;;;;24.17;11.88;;;;;;;3.29;100.00;101704.47;5008122;28;20080;-81
2024/02/27 03:59:31;;;;;;;27.42;12.07;;;;;;;3.32;100.00;101711.19;4986636;28;20104;-85
2024/02/27 04:01:57;;;;;;;25.27;11.68;;;;;;;3.31;100.00;101713.00;4988657;28;20499;-84
2024/02/27 04:04:23;;;;;;;26.00;12.70;;;;;;;3.26;100.00;101703.03;4998409;28;20152;-83
2024/02/27 04:06:48;;;;;;;24.40;12.63;;;;;;;3.28;100.00;101711.59;5000927;28;20068;-83
2024/02/27 04:09:14;;;;;;;23.13;10.73;;;;;;;3.21;100.00;101715.22;5003492;28;20029;-83
2024/02/27 04:11:40;;;;;;;23.27;10.68;;;;;;;3.21;100.00;101707.28;4982094;28;20513;-82
2024/02/27 04:14:08;;;;;;;20.15;10.93;;;;;;;3.22;100.00;101722.16;5013929;28;20053;-81
2024/02/27 04:16:35;;;;;;;19.30;9.40;;;;;;;3.19;100.00;101725.19;4983554;28;20038;-83
2024/02/27 04:19:04;;;;;;;21.67;9.93;;;;;;;3.19;100.00;101719.91;5001424;28;20057;-82
2024/02/27 04:21:30;;;;;;;22.15;9.85;;;;;;;3.18;100.00;101720.91;4992998;28;20045;-84
2024/02/27 04:23:56;;;;;;;20.77;10.00;;;;;;;3.15;100.00;101724.75;4995932;28;20041;-83
2024/02/27 04:26:23;;;;;;;18.67;10.18;;;;;;;3.16;100.00;101730.88;4999067;28;20044;-83
2024/02/27 04:28:52;;;;;;;18.20;9.32;;;;;;;3.14;100.00;101722.31;4996748;28;20065;-82
2024/02/27 04:31:17;;;;;;;20.23;10.07;;;;;;;3.12;100.00;101725.16;5003817;28;20505;-84
2024/02/27 04:33:43;;;;;;;19.10;9.90;;;;;;;3.13;100.00;101723.34;5005518;28;20044;-83
2024/02/27 04:36:09;;;;;;;21.80;10.02;;;;;;;3.12;100.00;101722.53;4997851;28;20041;-83
2024/02/27 04:38:37;;;;;;;18.65;8.98;;;;;;;3.16;100.00;101715.00;4986807;28;20022;-83
2024/02/27 04:41:04;;;;;;;19.27;10.07;;;;;;;3.14;100.00;101709.91;5016466;28;20091;-83
2024/02/27 04:43:30;;;;;;;21.90;10.27;;;;;;;3.12;100.00;101713.78;5004031;28;20057;-83
2024/02/27 04:45:55;;;;;;;18.90;9.70;;;;;;;3.05;100.00;101712.88;5033856;28;20066;-84
2024/02/27 04:48:21;;;;;;;19.75;10.00;;;;;;;3.04;100.00;101713.91;4998614;28;20487;-84
2024/02/27 04:50:47;;;;;;;21.95;10.63;;;;;;;3.00;100.00;101706.38;5004112;28;20072;-84
2024/02/27 04:53:13;;;;;;;20.88;10.57;;;;;;;2.98;100.00;101711.06;4998730;28;20045;-84
2024/02/27 04:55:42;;;;;;;23.35;10.25;;;;;;;2.96;100.00;101715.69;5002386;28;20129;-83
2024/02/27 04:58:08;;;;;;;22.17;10.73;;;;;;;2.94;100.00;101712.44;5018672;28;20108;-83
2024/02/27 05:00:33;;;;;;;21.63;10.80;;;;;;;2.95;100.00;101706.13;5005337;28;20758;-83
2024/02/27 05:02:59;;;;;;;21.70;11.07;;;;;;;2.92;100.00;101703.91;5009473;28;20131;-83
2024/02/27 05:05:25;;;;;;;20.98;10.32;;;;;;;2.93;100.00;101717.94;4978586;28;20517;-83
2024/02/27 05:07:51;;;;;;;20.58;9.85;;;;;;;2.94;100.00;101730.97;5014664;28;20042;-82
2024/02/27 05:10:17;;;;;;;19.98;9.52;;;;;;;2.89;100.00;101721.97;5021813;28;20081;-81
2024/02/27 05:12:45;;;;;;;18.70;9.18;;;;;;;2.88;100.00;101726.44;4984438;28;20065;-84
2024/02/27 05:15:11;;;;;;;22.77;11.23;;;;;;;2.85;100.00;101732.16;5018002;28;20033;-83
2024/02/27 05:17:37;;;;;;;19.98;9.13;;;;;;;2.84;100.00;101722.53;5017783;28;20041;-86
2024/02/27 05:20:03;;;;;;;16.40;8.82;;;;;;;2.80;100.00;101718.66;5034437;28;20038;-84
2024/02/27 05:22:29;;;;;;;16.98;9.15;;;;;;;2.79;100.00;101717.03;4985405;28;20041;-84
2024/02/27 05:24:54;;;;;;;19.17;9.80;;;;;;;2.84;100.00;101735.78;5000223;28;20038;-83
2024/02/27 05:27:20;;;;;;;18.55;10.57;;;;;;;2.79;100.00;101724.97;5003275;28;20502;-83
2024/02/27 05:29:46;;;;;;;18.27;9.68;;;;;;;2.85;100.00;101726.84;5007308;28;20038;-84
2024/02/27 05:32:14;;;;;;;18.33;9.30;;;;;;;2.83;100.00;101726.22;4998978;28;20038;-85
2024/02/27 05:34:40;;;;;;;17.77;10.02;;;;;;;2.82;100.00;101726.41;4988099;28;20040;-84
2024/02/27 05:37:06;;;;;;;19.98;10.57;;;;;;;2.85;100.00;101733.97;5017011;28;20057;-83
2024/02/27 05:39:31;;;;;;;19.42;9.98;;;;;;;2.82;100.00;101731.69;4982947;28;20042;-83
2024/02/27 05:41:57;;;;;;;17.85;9.95;;;;;;;2.79;100.00;101727.63;5004347;28;20109;-84
2024/02/27 05:44:23;;;;;;;18.08;9.63;;;;;;;2.77;100.00;101724.34;5005261;28;20038;-84
2024/02/27 05:46:49;;;;;;;19.38;9.48;;;;;;;2.75;100.00;101734.31;5014820;28;20110;-83
2024/02/27 05:49:15;;;;;;;19.05;10.52;;;;;;;2.78;100.00;101735.72;5019923;28;20093;-85
2024/02/27 05:51:41;;;;;;;17.65;9.90;;;;;;;2.79;100.00;101742.69;5018900;28;20483;-83
2024/02/27 05:54:07;;;;;;;16.85;9.18;;;;;;;2.77;100.00;101739.41;4997953;28;20030;-83
2024/02/27 05:56:35;;;;;;;18.98;10.23;;;;;;;2.78;100.00;101741.88;4978455;28;20037;-84
2024/02/27 05:59:04;;;;;;;19.23;10.30;;;;;;;2.80;100.00;101749.59;5020850;28;20026;-83
2024/02/27 06:01:33;;;;;;;18.60;10.38;;;;;;;2.76;100.00;101743.06;4989843;28;20395;-84
2024/02/27 06:03:58;;;;;;;19.67;10.02;;;;;;;2.79;100.00;101743.50;4999329;28;20037;-82
2024/02/27 06:06:27;;;;;;;19.35;11.43;;;;;;;2.76;100.00;101754.44;4997137;28;20049;-83
2024/02/27 06:08:53;;;;;;;16.92;10.23;;;;;;;2.70;100.00;101761.31;4994652;28;20029;-83
2024/02/27 06:11:21;;;;;;;16.77;9.90;;;;;;;2.71;100.00;101754.22;4996544;28;20041;-83
2024/02/27 06:13:47;;;;;;;15.10;9.13;;;;;;;2.70;100.00;101760.50;4978085;28;20042;-82
2024/02/27 06:16:13;;;;;;;17.50;10.35;;;;;;;2.68;100.00;101759.88;4993482;28;20100;-83
2024/02/27 06:18:42;;;;;;;16.92;9.55;;;;;;;2.70;100.00;101763.97;5008439;28;20041;-84
2024/02/27 06:23:54;;;;;;;19.17;11.05;;;;;;;2.68;100.00;101754.59;5011051;28;20066;-81
2024/02/27 06:26:19;;;;;;;18.67;11.32;;;;;;;2.66;100.00;101749.50;5010415;28;20033;-83
2024/02/27 06:28:47;;;;;;;19.13;10.85;;;;;;;2.69;100.00;101764.97;4997241;28;20037;-84
2024/02/27 06:31:13;;;;;;;20.33;11.43;;;;;;;2.71;100.00;101773.56;4998893;28;20633;-82
2024/02/27 06:33:39;;;;;;;20.52;11.93;;;;;;;2.70;100.00;101779.03;4994503;28;20030;-82
2024/02/27 06:36:05;;;;;;;18.52;10.70;;;;;;;2.72;100.00;101784.97;4985896;28;20048;-82
2024/02/27 06:38:30;;;;;;;19.38;11.05;;;;;;;2.73;100.00;101786.59;5002904;28;20041;-82
2024/02/27 06:40:56;;;;;;;20.75;12.10;;;;;;;2.73;100.00;101797.16;4981150;28;20446;-83
2024/02/27 06:43:22;;;;;;;20.08;10.93;;;;;;;2.70;100.00;101805.47;4999851;28;20185;-84
2024/02/27 06:45:48;;;;;;;22.73;11.48;;;;;;;2.66;100.00;101805.06;4986113;28;20061;-83
2024/02/27 06:48:16;;;;;;;20.20;11.32;;;;;;;2.68;100.00;101810.97;4978338;28;20073;-83
2024/02/27 06:50:42;;;;;;;19.88;11.63;;;;;;;2.70;100.00;101813.41;4983132;28;20687;-83
2024/02/27 06:53:08;;;;;;;18.25;10.90;;;;;;;2.68;100.00;101802.22;4994911;28;20057;-83
2024/02/27 06:55:37;;;;;;;20.02;11.70;;;;;;;2.67;100.00;101808.50;4986797;28;20994;-83
2024/02/27 06:58:04;;;;;;;16.33;9.60;;;;;;;2.71;100.00;101823.00;5023084;28;20084;-83
2024/02/27 07:00:29;;;;;;;;;;;;;;;2.71;100.00;101823.00;5003135;28;20037;-82
2024/02/27 07:02:55;;;;;;;18.88;10.13;;;;;;;2.69;100.00;101825.81;4989210;28;19922;-83
2024/02/27 07:05:21;;;;;;;;;;;;;;;2.70;100.00;101826.63;5014038;28;20038;-83
2024/02/27 07:07:47;;;;;;;20.25;10.20;;;;;;;2.69;100.00;101822.34;4997289;28;20559;-83
2024/02/27 07:10:13;;;;;;;20.73;11.43;;;;;;;2.69;100.00;101814.41;4978132;28;20083;-83
2024/02/27 07:12:42;;;;;;;;;;;;;;;2.72;100.00;101827.28;4978937;28;20507;-85
2024/02/27 07:15:09;;;;;;;18.85;9.90;;;;;;;2.71;100.00;101826.47;4978318;28;19921;-82
2024/02/27 07:17:35;;;;;;;19.90;11.05;;;;;;;2.70;100.00;101824.00;4994310;28;20117;-83
2024/02/27 07:20:03;;;;;;;21.83;12.32;;;;;;;2.69;100.00;101825.81;5012748;28;20136;-85
2024/02/27 07:22:29;;;;;;;22.13;12.45;;;;;;;2.69;100.00;101832.94;4972730;28;20045;-82
2024/02/27 07:24:55;;;;;;;;;;;;;;;2.72;100.00;101841.31;4995184;28;20041;-83
2024/02/27 07:27:21;;;;;;;17.73;10.25;;;;;;;2.68;100.00;101837.41;5001451;28;19918;-83
2024/02/27 07:29:46;;;;;;;20.02;10.77;;;;;;;2.67;100.00;101834.97;4982075;28;20026;-81
2024/02/27 07:32:14;;;;;;;21.15;12.23;;;;;;;2.71;100.00;101844.16;4995471;28;20030;-81
2024/02/27 07:34:42;;;;;;;19.75;10.75;;;;;;;2.73;100.00;101850.06;4992245;28;20483;-85
2024/02/27 07:37:10;;;;;;;18.48;10.95;;;;;;;2.70;100.00;101845.97;5004614;28;20042;-83
2024/02/27 07:39:37;;;;;;;17.25;10.32;;;;;;;2.68;100.00;101847.19;4993805;28;20029;-86
2024/02/27 07:42:05;;;;;;;18.60;10.65;;;;;;;2.67;100.00;101854.28;5012841;28;20052;-84
2024/02/27 07:44:31;;;;;;;17.00;10.05;;;;;;;2.73;100.00;101863.31;4999228;28;20394;-84
2024/02/27 07:46:57;;;;;;;16.35;10.15;;;;;;;2.73;100.00;101863.31;4982756;28;20045;-82
2024/02/27 07:49:25;;;;;;;16.23;9.32;;;;;;;2.75;100.00;101853.34;4978394;28;20109;-84
2024/02/27 07:51:53;;;;;;;;;;;;;;;2.78;100.00;101852.13;5008306;28;20084;-83
2024/02/27 07:54:21;;;;;;;17.23;8.90;;;;;;;2.74;100.00;101846.41;4995705;28;19921;-84
2024/02/27 07:56:47;;;;;;;17.83;9.77;;;;;;;2.77;100.00;101851.31;5014769;28;20048;-83
2024/02/27 07:59:12;;;;;;;16.42;9.57;;;;;;;2.79;100.00;101851.97;5015837;28;20029;-82
2024/02/27 08:01:38;;;;;;;14.70;8.57;;;;;;;2.74;100.00;101851.72;5012070;28;20064;-84
2024/02/27 08:04:06;;;;;;;17.00;9.38;;;;;;;2.79;100.00;101853.78;5013425;28;20120;-82
2024/02/27 08:06:35;;;;;;;16.35;9.48;;;;;;;2.77;100.00;101853.97;5010584;28;20022;-83
2024/02/27 08:09:01;;;;;;;15.50;8.73;;;;;;;2.78;100.00;101852.97;5009622;28;20030;-84
2024/02/27 08:11:34;;;;;;;15.73;8.77;;;;;;;2.78;100.00;101850.34;5003287;28;20030;-83
2024/02/27 08:14:01;;;;;;;16.02;9.13;;;;;;;2.85;100.00;101861.78;4997138;28;20034;-84
2024/02/27 08:16:27;;;;;;;16.67;10.07;;;;;;;2.86;100.00;101859.94;5012245;28;20041;-83
2024/02/27 08:18:53;;;;;;;14.70;8.70;;;;;;;2.84;100.00;101861.94;5003228;28;20103;-84
2024/02/27 08:21:21;;;;;;;13.63;8.48;;;;;;;2.84;100.00;101862.75;4993985;28;20045;-84
2024/02/27 08:23:47;;;;;;;14.50;9.18;;;;;;;2.88;100.00;101863.22;5006909;28;20037;-83
2024/02/27 08:26:13;;;;;;;15.63;8.93;;;;;;;2.92;100.00;101875.88;4994650;28;20421;-83
2024/02/27 08:28:43;;;;;;;15.73;8.70;;;;;;;2.98;100.00;101872.47;5012601;28;20022;-84
2024/02/27 08:31:09;;;;;;;18.58;9.95;;;;;;;2.96;100.00;101877.13;4998097;28;20128;-84
2024/02/27 08:33:36;;;;;;;15.35;9.50;;;;;;;2.99;100.00;101882.03;4998313;28;20053;-82
2024/02/27 08:36:03;;;;;;;15.73;9.82;;;;;;;3.04;100.00;101878.00;4994368;28;20115;-83
2024/02/27 08:38:29;;;;;;;18.17;9.25;;;;;;;3.07;100.00;101883.72;5000972;28;20679;-83
2024/02/27 08:40:54;;;;;;;12.40;7.97;;;;;;;3.12;100.00;101880.53;5009314;28;20040;-81
2024/02/27 08:43:20;;;;;;;16.05;8.73;;;;;;;3.10;100.00;101877.22;5026379;28;20036;-82
2024/02/27 08:45:46;;;;;;;13.30;8.45;;;;;;;3.08;100.00;101879.25;4995873;28;20062;-81
2024/02/27 08:48:12;;;;;;;13.85;8.43;;;;;;;3.16;100.00;101889.69;4994265;28;20025;-82
2024/02/27 08:50:38;;;;;;;14.93;8.95;;;;;;;3.13;100.00;101888.25;5022099;28;20331;-83
2024/02/27 08:53:04;;;;;;;14.13;8.38;;;;;;;3.14;100.00;101892.53;5040611;28;20127;-83
2024/02/27 08:55:31;;;;;;;12.98;8.13;;;;;;;3.19;100.00;101891.97;4997275;28;20034;-82
2024/02/27 08:57:57;;;;;;;12.82;8.38;;;;;;;3.21;100.00;101896.06;5003536;28;20044;-84
2024/02/27 09:00:23;;;;;;;12.27;8.27;;;;;;;3.23;100.00;101888.72;5011713;28;20042;-81
2024/02/27 09:02:49;;;;;;;14.77;8.82;;;;;;;3.25;100.00;101875.28;4997409;28;20076;-82
2024/02/27 09:05:14;;;;;;;15.65;9.85;;;;;;;3.24;100.00;101882.41;5006040;28;20117;-83
2024/02/27 09:07:41;;;;;;;16.00;9.82;;;;;;;3.32;100.00;101880.63;5019192;28;20042;-81
2024/02/27 09:10:11;;;;;;;15.00;9.32;;;;;;;3.32;100.00;101883.28;5020972;28;20034;-81
2024/02/27 09:12:39;;;;;;;16.98;10.63;;;;;;;3.33;100.00;101877.81;4999540;28;20030;-82
2024/02/27 09:15:05;;;;;;;14.88;9.30;;;;;;;3.38;100.00;101872.72;4999118;28;20038;-83
2024/02/27 09:17:31;;;;;;;13.98;8.80;;;;;;;3.35;100.00;101874.97;4995353;28;20053;-83
2024/02/27 09:19:58;;;;;;;13.20;7.93;;;;;;;3.37;100.00;101870.28;5009309;28;20045;-82
2024/02/27 09:22:24;;;;;;;13.82;8.80;;;;;;;3.41;100.00;101869.72;4994974;28;20060;-82
2024/02/27 09:24:49;;;;;;;14.80;8.23;;;;;;;3.48;100.00;101875.06;4989033;28;20479;-81
2024/02/27 09:27:17;;;;;;;17.30;9.63;;;;;;;3.49;100.00;101869.56;5011233;28;20034;-85
2024/02/27 09:29:43;;;;;;;14.50;8.60;;;;;;;3.51;100.00;101867.53;4988101;28;20403;-83
2024/02/27 09:32:09;;;;;;;13.48;8.52;;;;;;;3.47;100.00;101861.00;5022474;28;20033;-81
2024/02/27 09:34:34;;;;;;;16.83;9.73;;;;;;;3.53;100.00;101865.50;5020529;28;20081;-83
2024/02/27 09:37:00;;;;;;;14.98;8.75;;;;;;;3.51;100.00;101859.56;4995854;28;20487;-83
2024/02/27 09:39:29;;;;;;;15.18;8.80;;;;;;;3.54;100.00;101861.84;5003845;28;20042;-84
2024/02/27 09:42:14;;;;;;;13.85;7.88;;;;;;;3.53;100.00;101857.56;4997872;28;20030;-82
2024/02/27 09:44:42;;;;;;;12.82;8.40;;;;;;;3.56;100.00;101856.34;5026353;28;20031;-82
2024/02/27 09:47:09;;;;;;;15.95;8.43;;;;;;;3.60;100.00;101862.09;4980029;28;20034;-82
2024/02/27 09:49:39;;;;;;;13.57;7.88;;;;;;;3.60;100.00;101865.56;5017483;28;20029;-83
2024/02/27 09:52:15;;;;;;;11.90;7.65;;;;;;;3.69;100.00;101867.00;5030908;28;20038;-84
2024/02/27 09:54:42;;;;;;;14.75;8.68;;;;;;;3.65;100.00;101860.47;5015872;28;20485;-84
2024/02/27 09:57:08;;;;;;;14.05;8.75;;;;;;;3.62;100.00;101865.34;5014011;28;20038;-83
2024/02/27 09:59:35;;;;;;;13.02;8.07;;;;;;;3.64;100.00;101852.72;4997177;28;20030;-83
2024/02/27 10:02:13;;;;;;;11.07;7.75;;;;;;;3.73;100.00;101862.16;5006845;28;20034;-83
2024/02/27 10:04:40;;;;;;;15.38;9.00;;;;;;;3.74;100.00;101853.19;5014715;28;20079;-82
2024/02/27 10:07:10;;;;;;;14.35;9.15;;;;;;;3.74;100.00;101858.47;5013497;28;20042;-82
2024/02/27 10:09:40;;;;;;;13.63;8.38;;;;;;;3.75;100.00;101860.94;5016877;28;20029;-84
2024/02/27 10:12:10;;;;;;;12.98;8.43;;;;;;;3.79;100.00;101867.47;5018079;28;20434;-82
2024/02/27 10:14:37;;;;;;;12.43;8.52;;;;;;;3.85;100.00;101873.81;5035645;28;20037;-83
2024/02/27 10:17:07;;;;;;;12.10;7.63;;;;;;;3.86;100.00;101872.78;4981269;28;20042;-82
2024/02/27 10:19:35;;;;;;;13.43;8.32;;;;;;;3.82;100.00;101868.91;5000088;28;20045;-84
2024/02/27 10:22:01;;;;;;;12.38;7.57;;;;;;;3.84;100.00;101875.63;5011806;28;20045;-85
2024/02/27 10:24:28;;;;;;;11.15;7.63;;;;;;;3.76;100.00;101875.00;5008576;28;20045;-84
2024/02/27 10:26:54;;;;;;;;;;;;;;;3.74;100.00;101880.50;5029273;28;20045;-84
2024/02/27 10:29:22;;;;;;;10.55;7.45;;;;;;;3.70;100.00;101879.25;5013168;28;19920;-83
2024/02/27 10:31:50;;;;;;;11.95;7.57;;;;;;;3.78;100.00;101875.59;4992350;28;20968;-82
2024/02/27 10:34:19;;;;;;;14.95;7.70;;;;;;;3.88;100.00;101880.56;5007881;28;20060;-82
2024/02/27 10:36:59;;;;;;;11.60;7.47;;;;;;;3.94;100.00;101883.25;5008464;28;20045;-83
2024/02/27 10:39:26;;;;;;;11.82;7.55;;;;;;;3.97;100.00;101884.66;4976327;28;20034;-83
2024/02/27 10:41:53;;;;;;;16.52;8.95;;;;;;;3.95;100.00;101884.88;4985706;28;20048;-83
2024/02/27 10:44:20;;;;;;;11.35;8.45;;;;;;;3.95;100.00;101882.22;4987217;28;20062;-82
2024/02/27 10:46:49;;;;;;;11.70;8.13;;;;;;;4.00;100.00;101884.28;5019771;28;20100;-84
2024/02/27 10:49:16;;;;;;;12.40;7.80;;;;;;;4.01;100.00;101881.44;5021389;28;20490;-82
2024/02/27 10:51:43;;;;;;;14.63;8.32;;;;;;;4.10;100.00;101887.38;4999042;28;20398;-83
2024/02/27 10:54:09;;;;;;;14.80;8.88;;;;;;;4.06;100.00;101878.16;5029327;28;20100;-82
2024/02/27 10:56:36;;;;;;;11.50;7.75;;;;;;;4.04;100.00;101875.72;4997280;28;20070;-83
2024/02/27 10:59:03;;;;;;;11.18;7.90;;;;;;;4.12;100.00;101877.38;5008972;28;20034;-82
2024/02/27 11:01:31;;;;;;;12.10;7.78;;;;;;;4.19;100.00;101877.41;4994205;28;20152;-83
2024/02/27 11:03:57;;;;;;;10.77;7.47;;;;;;;4.25;100.00;101877.41;4973686;28;20045;-82
2024/02/27 11:06:26;;;;;;;11.20;7.65;;;;;;;4.20;100.00;101871.06;5011080;28;20165;-83
2024/02/27 11:08:56;;;;;;;13.07;7.70;;;;;;;4.23;100.00;101882.13;4995361;28;20083;-82
2024/02/27 11:11:24;;;;;;;11.73;7.85;;;;;;;4.32;100.00;101883.56;4994591;28;20112;-82
2024/02/27 11:13:52;;;;;;;11.20;6.90;;;;;;;4.33;100.00;101884.38;4999193;28;20034;-82
2024/02/27 11:16:21;;;;;;;9.52;6.82;;;;;;;4.31;100.00;101883.75;4994871;28;20053;-83